Time;durP1;ratioP1;P1;durP2;ratioP2;P2;SDS_P1;SDS_P2;PMS_P1;PMS_P2;Temp;Humidity;BMP_temperature;BMP_pressure;BME280_temperature;BME280_humidity;BME280_pressure;Samples;Min_cycle;Max_cycle;Signal;HPM_P1;HPM_P2
2022/11/03 00:01:36;;;;;;;3.22;1.90;;;;;;;-145.48;100.00;64539.38;5976836;29;20074;-88
2022/11/03 00:04:38;;;;;;;5.22;1.48;;;;;;;-145.48;100.00;64539.38;5975531;29;20100;-88
2022/11/03 00:07:40;;;;;;;6.80;1.48;;;;;;;-145.48;100.00;64539.38;5976569;29;20038;-88
2022/11/03 00:10:42;;;;;;;4.43;1.20;;;;;;;-145.48;100.00;64539.38;5983259;29;20054;-88
2022/11/03 00:13:44;;;;;;;5.00;1.55;;;;;;;-145.48;100.00;64539.38;5976776;29;20058;-88
2022/11/03 00:16:46;;;;;;;5.45;1.60;;;;;;;-145.48;100.00;64539.38;5975316;29;20458;-88
2022/11/03 00:19:48;;;;;;;5.50;1.80;;;;;;;-145.48;100.00;64539.38;5975740;29;20049;-88
2022/11/03 00:22:50;;;;;;;6.50;1.70;;;;;;;-145.48;100.00;64539.38;5975768;29;20501;-88
2022/11/03 00:25:51;;;;;;;3.13;1.30;;;;;;;-145.48;100.00;64539.38;5974991;29;20066;-88
2022/11/03 00:28:56;;;;;;;5.88;1.48;;;;;;;-145.48;100.00;64539.38;5975994;29;20435;-88
2022/11/03 00:31:58;;;;;;;4.25;1.48;;;;;;;-145.48;100.00;64539.38;5975049;29;20065;-88
2022/11/03 00:34:59;;;;;;;3.88;1.67;;;;;;;-145.48;100.00;64539.38;5974871;29;20039;-88
2022/11/03 00:38:01;;;;;;;4.03;1.40;;;;;;;-145.48;100.00;64539.38;5970212;29;20113;-88
2022/11/03 00:41:04;;;;;;;7.22;1.45;;;;;;;-145.48;100.00;64539.38;5968994;29;20042;-88
2022/11/03 00:44:09;;;;;;;5.00;1.58;;;;;;;-145.48;100.00;64539.38;5967870;29;20050;-88
2022/11/03 00:47:11;;;;;;;2.30;1.10;;;;;;;-145.48;100.00;64539.38;5969426;29;20355;-88
2022/11/03 00:50:13;;;;;;;5.95;1.70;;;;;;;-145.48;100.00;64539.38;5969397;29;20604;-88
2022/11/03 00:53:15;;;;;;;3.47;1.30;;;;;;;-145.48;100.00;64539.38;5981926;29;20098;-88
2022/11/03 00:56:21;;;;;;;6.82;1.40;;;;;;;-145.48;100.00;64539.38;5975489;29;20243;-88
2022/11/03 00:59:23;;;;;;;3.97;1.58;;;;;;;-145.48;100.00;64539.38;5976345;29;20073;-88
2022/11/03 01:02:25;;;;;;;9.18;1.83;;;;;;;-145.48;100.00;64539.38;5975880;29;20631;-88
2022/11/03 01:09:07;;;;;;;3.83;1.73;;;;;;;-145.48;100.00;64539.38;6014690;29;20764;-88
2022/11/03 01:12:13;;;;;;;3.70;1.33;;;;;;;-145.48;100.00;64539.38;6017804;29;20124;-88
2022/11/03 01:15:15;;;;;;;6.07;1.90;;;;;;;-145.48;100.00;64539.38;6016840;29;20080;-88
2022/11/03 01:18:16;;;;;;;5.88;1.45;;;;;;;-145.48;100.00;64539.38;6017953;29;20057;-88
2022/11/03 01:21:18;;;;;;;6.15;1.40;;;;;;;-145.48;100.00;64539.38;6017747;29;20072;-88
2022/11/03 01:24:20;;;;;;;5.72;1.70;;;;;;;-145.48;100.00;64539.38;6017568;29;20064;-88
2022/11/03 01:27:22;;;;;;;10.77;1.58;;;;;;;-145.48;100.00;64539.38;6017703;29;20118;-88
2022/11/03 01:30:24;;;;;;;3.47;1.42;;;;;;;-145.48;100.00;64539.38;6016950;29;20677;-88
2022/11/03 01:33:25;;;;;;;7.88;1.55;;;;;;;-145.48;100.00;64539.38;6016413;29;20106;-88
2022/11/03 01:36:28;;;;;;;4.65;1.45;;;;;;;-145.48;100.00;64539.38;6018867;29;20567;-88
2022/11/03 01:39:29;;;;;;;4.78;1.88;;;;;;;-145.48;100.00;64539.38;6004203;29;20061;-88
2022/11/03 01:42:31;;;;;;;6.22;1.73;;;;;;;-145.48;100.00;64539.38;5979704;29;20046;-88
2022/11/03 01:45:33;;;;;;;6.60;1.75;;;;;;;-145.48;100.00;64539.38;5979827;29;20500;-88
2022/11/03 01:48:37;;;;;;;7.45;1.58;;;;;;;-145.48;100.00;64539.38;5979822;29;20502;-88
2022/11/03 01:51:45;;;;;;;3.88;1.30;;;;;;;-145.48;100.00;64539.38;5993518;29;20097;-88
2022/11/03 01:54:54;;;;;;;11.05;1.90;;;;;;;-145.48;100.00;64539.38;5979608;29;20117;-88
2022/11/03 01:58:21;;;;;;;7.50;1.38;;;;;;;-145.48;100.00;64539.38;5979703;29;20050;-88
2022/11/03 02:01:23;;;;;;;4.15;1.63;;;;;;;-145.48;100.00;64539.38;5978652;29;20046;-88
2022/11/03 02:04:30;;;;;;;5.80;1.85;;;;;;;-145.48;100.00;64539.38;5979481;29;20054;-88
2022/11/03 02:07:49;;;;;;;4.93;1.35;;;;;;;-145.48;100.00;64539.38;5971361;29;20043;-88
2022/11/03 02:10:51;;;;;;;5.60;1.52;;;;;;;-145.48;100.00;64539.38;5976164;29;20125;-88
2022/11/03 02:13:53;;;;;;;10.55;2.10;;;;;;;-145.48;100.00;64539.38;5978679;29;20053;-88
2022/11/03 02:17:01;;;;;;;4.07;1.23;;;;;;;-145.48;100.00;64539.38;5978423;29;20207;-88
2022/11/03 02:20:07;;;;;;;4.05;1.27;;;;;;;-145.48;100.00;64539.38;5976914;29;20043;-88
2022/11/03 02:23:09;;;;;;;8.95;2.50;;;;;;;-145.48;100.00;64539.38;5979251;29;20046;-88
2022/11/03 02:26:14;;;;;;;4.60;1.90;;;;;;;-145.48;100.00;64539.38;5978631;29;20050;-88
2022/11/03 02:29:16;;;;;;;6.28;2.55;;;;;;;-145.48;100.00;64539.38;5978290;29;20417;-88
2022/11/03 02:32:22;;;;;;;3.92;1.50;;;;;;;-145.48;100.00;64539.38;5980335;29;20054;-88
2022/11/03 02:35:37;;;;;;;7.60;1.42;;;;;;;-145.48;100.00;64539.38;5978800;29;20052;-88
2022/11/03 02:39:04;;;;;;;6.18;1.65;;;;;;;-145.48;100.00;64539.38;5973672;29;20058;-88
2022/11/03 02:42:07;;;;;;;6.72;1.50;;;;;;;-145.48;100.00;64539.38;5972323;29;20060;-88
2022/11/03 02:45:13;;;;;;;4.18;1.55;;;;;;;-145.48;100.00;64539.38;5978724;29;20047;-88
2022/11/03 02:48:18;;;;;;;6.20;1.60;;;;;;;-145.48;100.00;64539.38;5972210;29;20497;-88
2022/11/03 02:51:20;;;;;;;4.18;1.50;;;;;;;-145.48;100.00;64539.38;5992915;29;20472;-88
2022/11/03 02:54:30;;;;;;;3.97;1.60;;;;;;;-145.48;100.00;64539.38;5977190;29;20057;-88
2022/11/03 02:57:37;;;;;;;7.63;1.60;;;;;;;-145.48;100.00;64539.38;5979116;29;20069;-88
2022/11/03 03:00:49;;;;;;;7.68;1.58;;;;;;;-145.48;100.00;64539.38;5979312;29;20058;-88
2022/11/03 03:04:04;;;;;;;3.85;1.45;;;;;;;-145.48;100.00;64539.38;5978722;29;20054;-88
2022/11/03 03:07:14;;;;;;;4.82;1.50;;;;;;;-145.48;100.00;64539.38;5978465;29;20062;-88
2022/11/03 03:10:26;;;;;;;4.10;1.48;;;;;;;-145.48;100.00;64539.38;5975729;29;20046;-88
2022/11/03 03:13:29;;;;;;;6.75;1.48;;;;;;;-145.48;100.00;64539.38;5978076;29;20534;-88
2022/11/03 03:16:40;;;;;;;6.82;1.70;;;;;;;-145.48;100.00;64539.38;5978669;29;20054;-88
2022/11/03 03:20:06;;;;;;;6.43;1.40;;;;;;;-145.48;100.00;64539.38;5977804;29;20615;-88
2022/11/03 03:23:21;;;;;;;3.50;1.27;;;;;;;-145.48;100.00;64539.38;5975543;29;20046;-88
2022/11/03 03:26:42;;;;;;;6.10;1.50;;;;;;;-145.48;100.00;64539.38;5976571;29;20250;-88
2022/11/03 03:29:49;;;;;;;5.20;1.45;;;;;;;-145.48;100.00;64539.38;5975228;29;20050;-88
2022/11/03 03:32:53;;;;;;;5.72;2.25;;;;;;;-145.48;100.00;64539.38;5976903;29;20513;-88
2022/11/03 03:35:58;;;;;;;7.43;1.60;;;;;;;-145.48;100.00;64539.38;5976139;29;20134;-88
2022/11/03 03:39:03;;;;;;;5.93;1.77;;;;;;;-145.48;100.00;64539.38;5976579;29;20457;-88
2022/11/03 03:42:09;;;;;;;7.55;1.60;;;;;;;-145.48;100.00;64539.38;5976559;29;20046;-88
2022/11/03 03:45:12;;;;;;;5.30;1.65;;;;;;;-145.48;100.00;64539.38;5975947;29;20047;-88
2022/11/03 03:48:14;;;;;;;8.05;1.73;;;;;;;-145.48;100.00;64539.38;5973651;29;20129;-88
2022/11/03 03:51:21;;;;;;;4.57;1.65;;;;;;;-145.48;100.00;64539.38;5976220;29;20157;-88
2022/11/03 03:54:23;;;;;;;6.07;1.75;;;;;;;-145.48;100.00;64539.38;5976273;29;20662;-88
2022/11/03 03:57:27;;;;;;;6.85;1.63;;;;;;;-145.48;100.00;64539.38;5977178;29;20081;-88
2022/11/03 04:00:29;;;;;;;4.55;1.75;;;;;;;-145.48;100.00;64539.38;5975508;29;20879;-88
2022/11/03 04:03:30;;;;;;;6.50;1.58;;;;;;;-145.48;100.00;64539.38;5977055;29;20041;-88
2022/11/03 04:06:32;;;;;;;6.45;1.60;;;;;;;-145.48;100.00;64539.38;5977017;29;20050;-88
2022/11/03 04:09:34;;;;;;;4.32;1.50;;;;;;;-145.48;100.00;64539.38;5977322;29;20490;-88
2022/11/03 04:22:40;;;;;;;;;;;;;;;-145.48;100.00;64539.38;5976867;29;20060;-88
2022/11/03 04:25:47;;;;;;;4.32;1.60;;;;;;;-145.48;100.00;64539.38;5976670;29;19936;-88
2022/11/03 04:28:51;;;;;;;3.80;1.95;;;;;;;-145.48;100.00;64539.38;5975880;29;20761;-88
2022/11/03 04:31:53;;;;;;;5.95;1.70;;;;;;;-145.48;100.00;64539.38;5977339;29;20502;-88
2022/11/03 04:34:58;;;;;;;5.18;1.50;;;;;;;-145.48;100.00;64539.38;5976043;29;20105;-88
2022/11/03 04:38:02;;;;;;;6.25;1.83;;;;;;;-145.48;100.00;64539.38;5976970;29;20489;-88
2022/11/03 04:41:12;;;;;;;4.68;2.10;;;;;;;-145.48;100.00;64539.38;5976650;29;20074;-87
2022/11/03 04:44:15;;;;;;;5.45;1.45;;;;;;;-145.48;100.00;64539.38;5976341;29;20088;-88
2022/11/03 04:47:18;;;;;;;9.02;2.10;;;;;;;-145.48;100.00;64539.38;5976719;29;20470;-88
2022/11/03 04:50:22;;;;;;;3.15;1.50;;;;;;;-145.48;100.00;64539.38;5976966;29;20050;-88
2022/11/03 04:53:29;;;;;;;7.38;1.98;;;;;;;-145.48;100.00;64539.38;5975684;29;20054;-88
2022/11/03 04:56:32;;;;;;;6.20;1.83;;;;;;;-145.48;100.00;64539.38;5976290;29;20053;-88
2022/11/03 04:59:34;;;;;;;5.00;1.65;;;;;;;-145.48;100.00;64539.38;5975823;29;20505;-88
2022/11/03 05:02:36;;;;;;;5.15;1.50;;;;;;;-145.48;100.00;64539.38;5975945;29;20505;-88
2022/11/03 05:05:38;;;;;;;7.20;2.00;;;;;;;-145.48;100.00;64539.38;5989385;29;20053;-88
2022/11/03 05:08:41;;;;;;;4.43;1.73;;;;;;;-145.48;100.00;64539.38;5975738;29;20042;-88
2022/11/03 05:11:46;;;;;;;7.45;2.20;;;;;;;-145.48;100.00;64539.38;5975828;29;20068;-88
2022/11/03 05:14:49;;;;;;;8.10;2.28;;;;;;;-145.48;100.00;64539.38;5975467;29;20050;-88
2022/11/03 05:18:00;;;;;;;10.73;2.30;;;;;;;-145.48;100.00;64539.38;5975666;29;20082;-88
2022/11/03 05:21:06;;;;;;;10.40;2.35;;;;;;;-145.48;100.00;64539.38;5975566;29;20288;-88
2022/11/03 05:24:12;;;;;;;7.20;1.85;;;;;;;-145.48;100.00;64539.38;5989179;29;20046;-88
2022/11/03 05:27:21;;;;;;;5.82;1.40;;;;;;;-145.48;100.00;64539.38;5976884;29;20058;-88
2022/11/03 05:30:22;;;;;;;9.10;1.98;;;;;;;-145.48;100.00;64539.38;5975806;29;20054;-88
2022/11/03 05:33:35;;;;;;;6.70;1.70;;;;;;;-145.48;100.00;64539.38;5974752;29;20125;-88
2022/11/03 05:36:37;;;;;;;5.72;1.60;;;;;;;-145.48;100.00;64539.38;5975969;29;20115;-88
2022/11/03 05:39:42;;;;;;;4.35;1.90;;;;;;;-145.48;100.00;64539.38;5975702;29;20603;-88
2022/11/03 05:42:46;;;;;;;5.25;1.58;;;;;;;-145.48;100.00;64539.38;5968402;29;20053;-88
2022/11/03 05:45:51;;;;;;;5.47;1.77;;;;;;;-145.48;100.00;64539.38;5975393;29;20791;-88
2022/11/03 05:48:53;;;;;;;5.25;1.48;;;;;;;-145.48;100.00;64539.38;5988856;29;20141;-88
2022/11/03 05:51:55;;;;;;;3.97;1.80;;;;;;;-145.48;100.00;64539.38;5976004;29;20414;-88
2022/11/03 05:54:58;;;;;;;7.18;1.75;;;;;;;-145.48;100.00;64539.38;5975373;29;20408;-88
2022/11/03 05:58:13;;;;;;;5.88;2.08;;;;;;;-145.48;100.00;64539.38;5975726;29;20517;-88
2022/11/03 06:01:18;;;;;;;4.82;1.50;;;;;;;-145.48;100.00;64539.38;5975508;29;20373;-88
2022/11/03 06:04:38;;;;;;;5.30;1.58;;;;;;;-145.48;100.00;64539.38;5975411;29;20137;-88
2022/11/03 06:07:40;;;;;;;6.95;1.58;;;;;;;-145.48;100.00;64539.38;5974658;29;20053;-88
2022/11/03 06:10:47;;;;;;;3.28;1.70;;;;;;;-145.48;100.00;64539.38;5974882;29;20046;-88
2022/11/03 06:13:49;;;;;;;4.63;1.45;;;;;;;-145.48;100.00;64539.38;5974976;29;20046;-88
2022/11/03 06:16:55;;;;;;;8.00;1.63;;;;;;;-145.48;100.00;64539.38;5975582;29;20175;-88
2022/11/03 06:19:59;;;;;;;3.13;1.45;;;;;;;-145.48;100.00;64539.38;5975371;29;20640;-88
2022/11/03 06:23:01;;;;;;;6.90;1.67;;;;;;;-145.48;100.00;64539.38;5976718;29;20094;-88
2022/11/03 06:26:13;;;;;;;6.15;1.92;;;;;;;-145.48;100.00;64539.38;5992433;29;20146;-88
2022/11/03 06:29:18;;;;;;;7.78;1.83;;;;;;;-145.48;100.00;64539.38;5978817;29;20046;-88
2022/11/03 06:32:20;;;;;;;3.65;1.55;;;;;;;-145.48;100.00;64539.38;5978980;29;20195;-88
2022/11/03 06:35:22;;;;;;;5.18;1.55;;;;;;;-145.48;100.00;64539.38;5974391;29;20037;-88
2022/11/03 06:38:28;;;;;;;3.17;1.63;;;;;;;-145.48;100.00;64539.38;5978675;29;20105;-88
2022/11/03 06:41:35;;;;;;;8.98;2.10;;;;;;;-145.48;100.00;64539.38;5977938;29;20534;-88
2022/11/03 06:44:40;;;;;;;4.47;1.52;;;;;;;-145.48;100.00;64539.38;5978065;29;20129;-88
2022/11/03 06:47:42;;;;;;;5.28;1.80;;;;;;;-145.48;100.00;64539.38;5979133;29;20050;-88
2022/11/03 06:50:44;;;;;;;6.65;1.90;;;;;;;-145.48;100.00;64539.38;5977812;29;20129;-88
2022/11/03 06:53:49;;;;;;;7.50;1.55;;;;;;;-145.48;100.00;64539.38;5978665;29;20069;-88
2022/11/03 06:56:51;;;;;;;8.15;2.08;;;;;;;-145.48;100.00;64539.38;5992484;29;20250;-88
2022/11/03 06:59:55;;;;;;;5.68;2.00;;;;;;;-145.48;100.00;64539.38;5978110;29;20046;-88
2022/11/03 07:03:29;;;;;;;9.23;1.70;;;;;;;-145.48;100.00;64539.38;5989001;29;20050;-88
2022/11/03 07:06:35;;;;;;;4.53;1.40;;;;;;;-145.48;100.00;64539.38;5978136;29;20146;-88
2022/11/03 07:09:38;;;;;;;4.43;2.05;;;;;;;-145.48;100.00;64539.38;5978352;29;20262;-88
2022/11/03 07:12:40;;;;;;;8.57;1.70;;;;;;;-145.48;100.00;64539.38;5991515;29;20049;-88
2022/11/03 07:15:44;;;;;;;6.18;1.70;;;;;;;-145.48;100.00;64539.38;5977983;29;20079;-88
2022/11/03 07:18:46;;;;;;;3.63;1.65;;;;;;;-145.48;100.00;64539.38;5972092;29;20418;-88
2022/11/03 07:21:58;;;;;;;4.00;1.60;;;;;;;-145.48;100.00;64539.38;5991559;29;20057;-88
2022/11/03 07:25:02;;;;;;;6.70;1.90;;;;;;;-145.48;100.00;64539.38;5995684;29;20046;-88
2022/11/03 07:28:04;;;;;;;8.85;2.35;;;;;;;-145.48;100.00;64539.38;5976253;29;20054;-88
2022/11/03 07:31:19;;;;;;;6.78;1.70;;;;;;;-145.48;100.00;64539.38;5977180;29;20050;-88
2022/11/03 07:34:24;;;;;;;7.97;1.85;;;;;;;-145.48;100.00;64539.38;5976938;29;20061;-88
2022/11/03 07:37:26;;;;;;;4.63;2.30;;;;;;;-145.48;100.00;64539.38;5977934;29;20042;-88
2022/11/03 07:40:31;;;;;;;6.30;1.70;;;;;;;-145.48;100.00;64539.38;5977767;29;20062;-88
2022/11/03 07:43:34;;;;;;;6.32;1.73;;;;;;;-145.48;100.00;64539.38;5977227;29;20556;-88
2022/11/03 07:46:36;;;;;;;5.20;1.73;;;;;;;-145.48;100.00;64539.38;5976751;29;20046;-88
2022/11/03 07:49:40;;;;;;;3.35;1.80;;;;;;;-145.48;100.00;64539.38;5977673;29;20054;-88
2022/11/03 07:52:42;;;;;;;4.22;1.95;;;;;;;-145.48;100.00;64539.38;5977716;29;20125;-88
2022/11/03 07:55:45;;;;;;;4.68;1.80;;;;;;;-145.48;100.00;64539.38;5990120;29;20588;-89
2022/11/03 07:59:19;;;;;;;4.82;1.60;;;;;;;-145.48;100.00;64539.38;5977256;29;20057;-88
2022/11/03 08:02:33;;;;;;;7.00;1.88;;;;;;;-145.48;100.00;64539.38;5971974;29;20553;-88
2022/11/03 08:05:35;;;;;;;5.35;1.75;;;;;;;-145.48;100.00;64539.38;5973051;29;20103;-88
2022/11/03 08:08:37;;;;;;;8.15;1.88;;;;;;;-145.48;100.00;64539.38;5967370;29;20058;-88
2022/11/03 08:11:39;;;;;;;8.05;1.80;;;;;;;-145.48;100.00;64539.38;5973787;29;20109;-89
2022/11/03 08:14:41;;;;;;;4.82;2.00;;;;;;;-145.48;100.00;64539.38;5969503;29;20050;-88
2022/11/03 08:17:42;;;;;;;7.00;2.08;;;;;;;-145.48;100.00;64539.38;5973585;29;20057;-88
2022/11/03 08:20:44;;;;;;;5.72;1.80;;;;;;;-145.48;100.00;64539.38;5975554;29;20454;-88
2022/11/03 08:23:46;;;;;;;5.55;1.55;;;;;;;-145.48;100.00;64539.38;5971958;29;20254;-89
2022/11/03 08:26:48;;;;;;;3.60;1.90;;;;;;;-145.48;100.00;64539.38;5975261;29;20054;-89
2022/11/03 08:29:50;;;;;;;7.30;2.00;;;;;;;-145.48;100.00;64539.38;5973989;29;20418;-89
2022/11/03 08:32:53;;;;;;;5.53;2.00;;;;;;;-145.48;100.00;64539.38;5973593;29;20062;-89
2022/11/03 08:35:55;;;;;;;5.22;1.70;;;;;;;-145.48;100.00;64539.38;5975099;29;20065;-88
2022/11/03 08:38:57;;;;;;;4.60;2.22;;;;;;;-145.48;100.00;64539.38;5976391;29;20437;-89
2022/11/03 08:41:58;;;;;;;5.85;2.28;;;;;;;-145.48;100.00;64539.38;5976250;29;20050;-88
2022/11/03 08:45:00;;;;;;;5.78;1.90;;;;;;;-145.48;100.00;64539.38;5976285;29;20042;-89
2022/11/03 08:48:03;;;;;;;7.93;1.70;;;;;;;-145.48;100.00;64539.38;5977901;29;20046;-88
2022/11/03 08:51:07;;;;;;;4.85;1.55;;;;;;;-145.48;100.00;64539.38;5990835;29;20081;-89
2022/11/03 08:54:08;;;;;;;7.22;1.75;;;;;;;-145.48;100.00;64539.38;5978115;29;20129;-89
2022/11/03 08:57:10;;;;;;;6.03;1.88;;;;;;;-145.48;100.00;64539.38;5975590;29;20052;-88
2022/11/03 09:00:15;;;;;;;6.00;1.45;;;;;;;-145.48;100.00;64539.38;5976555;29;20545;-88
2022/11/03 09:03:17;;;;;;;6.82;1.73;;;;;;;-145.48;100.00;64539.38;5978426;29;20061;-89
2022/11/03 09:06:19;;;;;;;7.10;1.75;;;;;;;-145.48;100.00;64539.38;5977422;29;20050;-89
2022/11/03 09:09:21;;;;;;;9.40;2.20;;;;;;;-145.48;100.00;64539.38;5977380;29;20050;-88
2022/11/03 09:12:43;;;;;;;5.57;1.67;;;;;;;-145.48;100.00;64539.38;5977148;29;20046;-88
2022/11/03 09:15:45;;;;;;;5.93;2.20;;;;;;;-145.48;100.00;64539.38;5977008;29;20046;-89
2022/11/03 09:18:47;;;;;;;7.40;1.98;;;;;;;-145.48;100.00;64539.38;5976555;29;20057;-89
2022/11/03 09:21:51;;;;;;;5.65;1.38;;;;;;;-145.48;100.00;64539.38;5976614;29;20053;-88
2022/11/03 09:24:53;;;;;;;3.78;1.88;;;;;;;-145.48;100.00;64539.38;5977533;29;20398;-89
2022/11/03 09:27:55;;;;;;;5.47;1.70;;;;;;;-145.48;100.00;64539.38;5976649;29;20035;-89
2022/11/03 09:30:57;;;;;;;7.45;1.63;;;;;;;-145.48;100.00;64539.38;5976117;29;20054;-89
2022/11/03 09:33:59;;;;;;;7.05;1.45;;;;;;;-145.48;100.00;64539.38;5977181;29;20050;-89
2022/11/03 09:37:01;;;;;;;5.30;1.95;;;;;;;-145.48;100.00;64539.38;5976885;29;20050;-89
2022/11/03 09:40:04;;;;;;;6.25;1.73;;;;;;;-145.48;100.00;64539.38;5968795;29;20046;-89
2022/11/03 09:43:06;;;;;;;4.43;1.88;;;;;;;-145.48;100.00;64539.38;5976936;29;20046;-89
2022/11/03 09:46:10;;;;;;;6.40;2.00;;;;;;;-145.48;100.00;64539.38;5977365;29;20050;-90
2022/11/03 09:49:14;;;;;;;7.55;1.77;;;;;;;-145.48;100.00;64539.38;5976371;29;20104;-89
2022/11/03 09:52:20;;;;;;;6.57;2.17;;;;;;;-145.48;100.00;64539.38;5979435;29;20280;-89
2022/11/03 09:55:24;;;;;;;6.82;1.77;;;;;;;-145.48;100.00;64539.38;5955735;29;20077;-88
2022/11/03 09:59:06;;;;;;;6.13;2.15;;;;;;;-145.48;100.00;64539.38;5947411;29;20520;-89
2022/11/03 10:02:37;;;;;;;4.00;1.70;;;;;;;-145.48;100.00;64539.38;5961588;29;20053;-89
2022/11/03 10:06:20;;;;;;;4.63;1.70;;;;;;;-145.48;100.00;64539.38;5979024;29;20467;-89
2022/11/03 10:09:24;;;;;;;6.55;1.60;;;;;;;-145.48;100.00;64539.38;5978870;29;20050;-89
2022/11/03 10:12:30;;;;;;;2.95;1.40;;;;;;;-145.48;100.00;64539.38;5977323;29;20055;-89
2022/11/03 10:15:32;;;;;;;4.28;1.88;;;;;;;-145.48;100.00;64539.38;5970042;29;20058;-89
2022/11/03 10:18:35;;;;;;;3.47;1.70;;;;;;;-145.48;100.00;64539.38;5963626;29;20058;-89
2022/11/03 10:21:38;;;;;;;9.27;2.08;;;;;;;-145.48;100.00;64539.38;5975972;29;20042;-89
2022/11/03 10:25:04;;;;;;;5.55;1.75;;;;;;;-145.48;100.00;64539.38;6038536;23;20049;-96
2022/11/03 10:28:28;;;;;;;7.20;1.92;;;;;;;-145.48;100.00;64539.38;6108622;29;20053;-96
2022/11/03 10:32:28;;;;;;;6.80;1.65;;;;;;;-145.48;100.00;64539.38;6095097;23;20097;-94
2022/11/03 10:35:32;;;;;;;6.60;1.63;;;;;;;-145.48;100.00;64539.38;6025817;29;20049;-94
2022/11/03 10:43:19;;;;;;;5.68;1.85;;;;;;;-145.48;100.00;64539.38;6019519;29;20101;-94
2022/11/03 10:46:21;;;;;;;4.95;1.88;;;;;;;-145.48;100.00;64539.38;6032506;29;20056;-94
2022/11/03 10:49:43;;;;;;;6.10;2.10;;;;;;;-145.48;100.00;64539.38;6030385;29;20049;-94
2022/11/03 10:52:58;;;;;;;3.83;1.90;;;;;;;-145.48;100.00;64539.38;6038930;29;20404;-94
2022/11/03 11:02:25;;;;;;;4.25;1.90;;;;;;;-145.48;100.00;64539.38;6029663;29;20064;-94
2022/11/03 11:05:27;;;;;;;6.97;1.85;;;;;;;-145.48;100.00;64539.38;6037401;29;20056;-94
2022/11/03 11:08:28;;;;;;;4.78;1.92;;;;;;;-145.48;100.00;64539.38;6059406;29;20506;-94
2022/11/03 11:11:31;;;;;;;6.35;1.95;;;;;;;-145.48;100.00;64539.38;6038792;29;20487;-94
2022/11/03 11:14:49;;;;;;;10.68;2.20;;;;;;;-145.48;100.00;64539.38;6054096;29;20041;-94
2022/11/03 11:17:51;;;;;;;6.05;1.88;;;;;;;-145.48;100.00;64539.38;6053100;29;20418;-94
2022/11/03 11:21:16;;;;;;;8.05;2.63;;;;;;;-145.48;100.00;64539.38;6067914;29;20131;-94
2022/11/03 11:24:43;;;;;;;4.63;1.88;;;;;;;-145.48;100.00;64539.38;6037456;29;20079;-95
2022/11/03 11:27:54;;;;;;;6.38;1.95;;;;;;;-145.48;100.00;64539.38;6035925;29;20045;-94
2022/11/03 11:30:59;;;;;;;5.15;1.90;;;;;;;-145.48;100.00;64539.38;6031373;29;20508;-94
2022/11/03 11:34:19;;;;;;;9.02;1.90;;;;;;;-145.48;100.00;64539.38;6039811;29;20142;-94
2022/11/03 11:37:20;;;;;;;5.80;1.70;;;;;;;-145.48;100.00;64539.38;6051186;29;20075;-94
2022/11/03 11:40:22;;;;;;;3.10;1.98;;;;;;;-145.48;100.00;64539.38;6042520;29;20493;-95
2022/11/03 11:43:26;;;;;;;6.32;1.85;;;;;;;-145.48;100.00;64539.38;6061975;29;20130;-95
2022/11/03 11:46:41;;;;;;;5.78;2.03;;;;;;;-145.48;100.00;64539.38;6049316;29;20055;-92
2022/11/03 11:49:43;;;;;;;9.52;2.22;;;;;;;-145.48;100.00;64539.38;6064084;29;20041;-92
2022/11/03 11:52:59;;;;;;;5.88;1.52;;;;;;;-145.48;100.00;64539.38;6049190;29;20041;-92
2022/11/03 11:56:02;;;;;;;4.97;1.85;;;;;;;-145.48;100.00;64539.38;6061048;29;20052;-93
2022/11/03 11:59:04;;;;;;;5.57;2.03;;;;;;;-145.48;100.00;64539.38;6045130;29;20053;-92
2022/11/03 12:02:17;;;;;;;7.90;2.05;;;;;;;-145.48;100.00;64539.38;6046307;29;20136;-92
2022/11/03 12:05:26;;;;;;;5.45;2.00;;;;;;;-145.48;100.00;64539.38;6061298;29;20410;-93
2022/11/03 12:08:30;;;;;;;6.20;2.10;;;;;;;-145.48;100.00;64539.38;6056703;29;20463;-92
2022/11/03 12:11:49;;;;;;;5.00;1.80;;;;;;;-145.48;100.00;64539.38;6052300;29;20382;-92
2022/11/03 12:14:57;;;;;;;8.00;2.13;;;;;;;-145.48;100.00;64539.38;6034125;29;20084;-92
2022/11/03 12:17:59;;;;;;;3.50;1.85;;;;;;;-145.48;100.00;64539.38;6022291;29;20057;-92
2022/11/03 12:21:13;;;;;;;7.93;1.73;;;;;;;-145.48;100.00;64539.38;6048834;29;20131;-93
2022/11/03 12:24:30;;;;;;;6.38;1.95;;;;;;;-145.48;100.00;64539.38;6044817;29;20052;-92
2022/11/03 12:27:32;;;;;;;6.03;1.90;;;;;;;-145.48;100.00;64539.38;6046926;29;20065;-92
2022/11/03 12:30:36;;;;;;;5.32;1.85;;;;;;;-145.48;100.00;64539.38;6056479;29;20575;-92
2022/11/03 12:33:43;;;;;;;7.43;1.80;;;;;;;-145.48;100.00;64539.38;6063097;29;20045;-93
2022/11/03 12:36:46;;;;;;;5.63;1.73;;;;;;;-145.48;100.00;64539.38;6037882;29;20048;-93
2022/11/03 12:39:55;;;;;;;5.82;2.17;;;;;;;-145.48;100.00;64539.38;6054539;29;20089;-92
2022/11/03 12:42:57;;;;;;;4.25;1.60;;;;;;;-145.48;100.00;64539.38;6036518;29;20096;-92
2022/11/03 12:45:59;;;;;;;3.10;1.63;;;;;;;-145.48;100.00;64539.38;6043274;29;20100;-92
2022/11/03 12:49:01;;;;;;;4.32;1.92;;;;;;;-145.48;100.00;64539.38;6060442;29;20040;-92
2022/11/03 12:52:05;;;;;;;5.72;2.40;;;;;;;-145.48;100.00;64539.38;6055208;29;20040;-93
2022/11/03 12:55:09;;;;;;;3.22;1.60;;;;;;;-145.48;100.00;64539.38;6050834;29;20727;-93
2022/11/03 12:58:10;;;;;;;4.97;1.92;;;;;;;-145.48;100.00;64539.38;6052133;29;20073;-93
2022/11/03 13:01:12;;;;;;;3.13;1.58;;;;;;;-145.48;100.00;64539.38;6051074;29;20052;-92
2022/11/03 13:04:15;;;;;;;3.95;2.08;;;;;;;-145.48;100.00;64539.38;6062607;29;20131;-92
2022/11/03 13:07:16;;;;;;;4.32;1.58;;;;;;;-145.48;100.00;64539.38;6049968;29;20052;-95
2022/11/03 13:10:28;;;;;;;4.13;2.03;;;;;;;-145.48;100.00;64539.38;6051667;29;20047;-95
2022/11/03 13:13:31;;;;;;;7.30;2.88;;;;;;;-145.48;100.00;64539.38;6052879;29;20132;-95
2022/11/03 13:16:34;;;;;;;1.95;1.67;;;;;;;-145.48;100.00;64539.38;6049833;29;20077;-92
2022/11/03 13:19:36;;;;;;;6.13;2.20;;;;;;;-145.48;100.00;64539.38;6051003;29;20040;-93
2022/11/03 13:22:38;;;;;;;4.28;1.92;;;;;;;-145.48;100.00;64539.38;6061719;29;20045;-93
2022/11/03 13:25:40;;;;;;;6.22;1.90;;;;;;;-145.48;100.00;64539.38;6053988;29;20133;-92
2022/11/03 13:28:43;;;;;;;4.05;2.10;;;;;;;-145.48;100.00;64539.38;6041608;29;20131;-93
2022/11/03 13:31:44;;;;;;;3.25;1.70;;;;;;;-145.48;100.00;64539.38;6066011;29;20059;-92
2022/11/03 13:34:46;;;;;;;3.67;1.77;;;;;;;-145.48;100.00;64539.38;6044867;29;20048;-93
2022/11/03 13:37:48;;;;;;;6.72;1.92;;;;;;;-145.48;100.00;64539.38;6058764;29;20045;-92
2022/11/03 13:40:50;;;;;;;5.13;1.92;;;;;;;-145.48;100.00;64539.38;6044535;29;20307;-93
2022/11/03 13:43:57;;;;;;;3.22;1.67;;;;;;;-145.48;100.00;64539.38;6044654;29;20379;-93
2022/11/03 13:46:59;;;;;;;3.30;1.80;;;;;;;-145.48;100.00;64539.38;6049163;29;20458;-92
2022/11/03 13:50:01;;;;;;;4.88;1.85;;;;;;;-145.48;100.00;64539.38;6044722;29;20058;-93
2022/11/03 13:53:19;;;;;;;3.97;1.90;;;;;;;-145.48;100.00;64539.38;6047787;29;20127;-93
2022/11/03 13:56:41;;;;;;;4.60;2.00;;;;;;;-145.48;100.00;64539.38;6048111;29;20161;-92
2022/11/03 14:00:06;;;;;;;6.05;2.10;;;;;;;-145.48;100.00;64539.38;6035455;29;20709;-92
2022/11/03 14:03:19;;;;;;;4.75;1.50;;;;;;;-145.48;100.00;64539.38;6018550;29;20037;-92
2022/11/03 14:06:41;;;;;;;2.72;1.55;;;;;;;-145.48;100.00;64539.38;6033908;29;20053;-92
2022/11/03 14:09:44;;;;;;;4.50;2.03;;;;;;;-145.48;100.00;64539.38;6047740;29;20041;-93
2022/11/03 14:12:46;;;;;;;5.93;2.13;;;;;;;-145.48;100.00;64539.38;6057598;29;20737;-93
2022/11/03 14:15:48;;;;;;;5.03;2.10;;;;;;;-145.48;100.00;64539.38;6044851;29;20049;-93
2022/11/03 14:18:50;;;;;;;4.18;1.95;;;;;;;-145.48;100.00;64539.38;6029395;29;20057;-93
2022/11/03 14:21:52;;;;;;;4.03;1.92;;;;;;;-145.48;100.00;64539.38;6037461;29;20052;-92
2022/11/03 14:24:54;;;;;;;4.90;1.98;;;;;;;-145.48;100.00;64539.38;6058841;29;20542;-92
2022/11/03 14:27:56;;;;;;;4.28;2.10;;;;;;;-145.48;100.00;64539.38;6064220;29;20060;-93
2022/11/03 14:31:00;;;;;;;3.58;1.92;;;;;;;-145.48;100.00;64539.38;6019241;29;20053;-93